sensor_id;sensor_type;location;lat;lon;timestamp;temperature;humidity
42333;DHT22;27984;51.476;5.702;2023-04-22T00:00:19;8.20;99.90
42333;DHT22;27984;51.476;5.702;2023-04-22T00:02:45;8.20;99.90
42333;DHT22;27984;51.476;5.702;2023-04-22T00:05:10;8.20;99.90
42333;DHT22;27984;51.476;5.702;2023-04-22T00:07:41;8.10;99.90
42333;DHT22;27984;51.476;5.702;2023-04-22T00:10:08;8.10;99.90
42333;DHT22;27984;51.476;5.702;2023-04-22T00:12:34;8.00;99.90
42333;DHT22;27984;51.476;5.702;2023-04-22T00:15:00;8.00;99.90
42333;DHT22;27984;51.476;5.702;2023-04-22T00:17:25;7.90;99.90
42333;DHT22;27984;51.476;5.702;2023-04-22T00:19:51;7.90;99.90
42333;DHT22;27984;51.476;5.702;2023-04-22T00:22:17;7.90;99.90
42333;DHT22;27984;51.476;5.702;2023-04-22T00:24:42;7.90;99.90
42333;DHT22;27984;51.476;5.702;2023-04-22T00:27:08;7.90;99.90
42333;DHT22;27984;51.476;5.702;2023-04-22T00:29:34;7.80;99.90
42333;DHT22;27984;51.476;5.702;2023-04-22T00:31:59;7.80;99.90
42333;DHT22;27984;51.476;5.702;2023-04-22T00:34:25;7.80;99.90
42333;DHT22;27984;51.476;5.702;2023-04-22T00:36:50;7.80;99.90
42333;DHT22;27984;51.476;5.702;2023-04-22T00:39:16;7.80;99.90
42333;DHT22;27984;51.476;5.702;2023-04-22T00:41:42;7.80;99.90
42333;DHT22;27984;51.476;5.702;2023-04-22T00:44:08;7.80;99.90
42333;DHT22;27984;51.476;5.702;2023-04-22T00:46:36;7.80;99.90
42333;DHT22;27984;51.476;5.702;2023-04-22T00:49:03;7.80;99.90
42333;DHT22;27984;51.476;5.702;2023-04-22T00:51:29;7.90;99.90
42333;DHT22;27984;51.476;5.702;2023-04-22T00:53:56;7.90;99.90
42333;DHT22;27984;51.476;5.702;2023-04-22T00:56:24;7.90;99.90
42333;DHT22;27984;51.476;5.702;2023-04-22T00:58:52;7.90;99.90
42333;DHT22;27984;51.476;5.702;2023-04-22T01:01:18;7.90;99.90
42333;DHT22;27984;51.476;5.702;2023-04-22T01:03:45;8.00;99.90
42333;DHT22;27984;51.476;5.702;2023-04-22T01:06:12;8.00;99.90
42333;DHT22;27984;51.476;5.702;2023-04-22T01:08:39;8.00;99.90
42333;DHT22;27984;51.476;5.702;2023-04-22T01:11:05;8.10;99.90
42333;DHT22;27984;51.476;5.702;2023-04-22T01:13:30;8.10;99.90
42333;DHT22;27984;51.476;5.702;2023-04-22T01:15:57;8.10;99.90
42333;DHT22;27984;51.476;5.702;2023-04-22T01:18:24;8.20;99.90
42333;DHT22;27984;51.476;5.702;2023-04-22T01:20:50;8.20;99.90
42333;DHT22;27984;51.476;5.702;2023-04-22T01:23:19;8.20;99.90
42333;DHT22;27984;51.476;5.702;2023-04-22T01:25:46;8.30;99.90
42333;DHT22;27984;51.476;5.702;2023-04-22T01:28:12;8.30;99.90
42333;DHT22;27984;51.476;5.702;2023-04-22T01:30:37;8.30;99.90
42333;DHT22;27984;51.476;5.702;2023-04-22T01:33:04;8.30;99.90
42333;DHT22;27984;51.476;5.702;2023-04-22T01:35:29;8.30;99.90
42333;DHT22;27984;51.476;5.702;2023-04-22T01:38:04;8.30;99.90
42333;DHT22;27984;51.476;5.702;2023-04-22T01:40:30;8.30;99.90
42333;DHT22;27984;51.476;5.702;2023-04-22T01:42:58;8.40;99.90
42333;DHT22;27984;51.476;5.702;2023-04-22T01:45:23;8.30;99.90
42333;DHT22;27984;51.476;5.702;2023-04-22T01:47:49;8.30;99.90
42333;DHT22;27984;51.476;5.702;2023-04-22T01:50:15;8.30;99.90
42333;DHT22;27984;51.476;5.702;2023-04-22T01:52:40;8.30;99.90
42333;DHT22;27984;51.476;5.702;2023-04-22T01:55:07;8.40;99.90
42333;DHT22;27984;51.476;5.702;2023-04-22T01:57:33;8.40;99.90
42333;DHT22;27984;51.476;5.702;2023-04-22T01:59:58;8.40;99.90
42333;DHT22;27984;51.476;5.702;2023-04-22T02:02:24;8.40;99.90
42333;DHT22;27984;51.476;5.702;2023-04-22T02:04:50;8.40;99.90
42333;DHT22;27984;51.476;5.702;2023-04-22T02:07:16;8.40;99.90
42333;DHT22;27984;51.476;5.702;2023-04-22T02:09:41;8.40;99.90
42333;DHT22;27984;51.476;5.702;2023-04-22T02:12:07;8.40;99.90
42333;DHT22;27984;51.476;5.702;2023-04-22T02:14:32;8.40;99.90
42333;DHT22;27984;51.476;5.702;2023-04-22T02:16:58;8.40;99.90
42333;DHT22;27984;51.476;5.702;2023-04-22T02:19:23;8.40;99.90
42333;DHT22;27984;51.476;5.702;2023-04-22T02:21:49;8.40;99.90
42333;DHT22;27984;51.476;5.702;2023-04-22T02:24:15;8.50;99.90
42333;DHT22;27984;51.476;5.702;2023-04-22T02:26:40;8.40;99.90
42333;DHT22;27984;51.476;5.702;2023-04-22T02:29:07;8.40;99.90
42333;DHT22;27984;51.476;5.702;2023-04-22T02:31:32;8.40;99.90
42333;DHT22;27984;51.476;5.702;2023-04-22T02:33:58;8.40;99.90
42333;DHT22;27984;51.476;5.702;2023-04-22T02:36:23;8.40;99.90
42333;DHT22;27984;51.476;5.702;2023-04-22T02:38:49;8.40;99.90
42333;DHT22;27984;51.476;5.702;2023-04-22T02:41:14;8.40;99.90
42333;DHT22;27984;51.476;5.702;2023-04-22T02:43:40;8.40;99.90
42333;DHT22;27984;51.476;5.702;2023-04-22T02:46:11;8.30;99.90
42333;DHT22;27984;51.476;5.702;2023-04-22T02:48:37;8.40;99.90
42333;DHT22;27984;51.476;5.702;2023-04-22T02:51:03;8.40;99.90
42333;DHT22;27984;51.476;5.702;2023-04-22T02:53:28;8.40;99.90
42333;DHT22;27984;51.476;5.702;2023-04-22T02:55:54;8.40;99.90
42333;DHT22;27984;51.476;5.702;2023-04-22T02:58:21;8.40;99.90
42333;DHT22;27984;51.476;5.702;2023-04-22T03:00:46;8.40;99.90
42333;DHT22;27984;51.476;5.702;2023-04-22T03:03:12;8.40;99.90
42333;DHT22;27984;51.476;5.702;2023-04-22T03:05:37;8.50;99.90
42333;DHT22;27984;51.476;5.702;2023-04-22T03:08:03;8.40;99.90
42333;DHT22;27984;51.476;5.702;2023-04-22T03:10:28;8.50;99.90
42333;DHT22;27984;51.476;5.702;2023-04-22T03:12:54;8.50;99.90
42333;DHT22;27984;51.476;5.702;2023-04-22T03:15:20;8.50;99.90
42333;DHT22;27984;51.476;5.702;2023-04-22T03:17:45;8.60;99.90
42333;DHT22;27984;51.476;5.702;2023-04-22T03:20:11;8.60;99.90
42333;DHT22;27984;51.476;5.702;2023-04-22T03:22:36;8.60;99.90
42333;DHT22;27984;51.476;5.702;2023-04-22T03:25:02;8.60;99.90
42333;DHT22;27984;51.476;5.702;2023-04-22T03:27:28;8.70;99.90
42333;DHT22;27984;51.476;5.702;2023-04-22T03:29:54;8.70;99.90
42333;DHT22;27984;51.476;5.702;2023-04-22T03:32:19;8.80;99.90
42333;DHT22;27984;51.476;5.702;2023-04-22T03:34:45;8.70;99.90
42333;DHT22;27984;51.476;5.702;2023-04-22T03:37:10;8.70;99.90
42333;DHT22;27984;51.476;5.702;2023-04-22T03:39:36;8.70;99.90
42333;DHT22;27984;51.476;5.702;2023-04-22T03:42:01;8.70;99.90
42333;DHT22;27984;51.476;5.702;2023-04-22T03:44:27;8.70;99.90
42333;DHT22;27984;51.476;5.702;2023-04-22T03:46:52;8.70;99.90
42333;DHT22;27984;51.476;5.702;2023-04-22T03:49:18;8.70;99.90
42333;DHT22;27984;51.476;5.702;2023-04-22T03:51:43;8.70;99.90
42333;DHT22;27984;51.476;5.702;2023-04-22T03:54:09;8.70;99.90
42333;DHT22;27984;51.476;5.702;2023-04-22T03:56:34;8.80;99.90
42333;DHT22;27984;51.476;5.702;2023-04-22T03:59:01;8.80;99.90
42333;DHT22;27984;51.476;5.702;2023-04-22T04:01:26;8.80;99.90
42333;DHT22;27984;51.476;5.702;2023-04-22T04:03:52;8.80;99.90
42333;DHT22;27984;51.476;5.702;2023-04-22T04:06:17;8.80;99.90
42333;DHT22;27984;51.476;5.702;2023-04-22T04:08:43;8.80;99.90
42333;DHT22;27984;51.476;5.702;2023-04-22T04:11:09;8.70;99.90
42333;DHT22;27984;51.476;5.702;2023-04-22T04:13:35;8.70;99.90
42333;DHT22;27984;51.476;5.702;2023-04-22T04:16:00;8.70;99.90
42333;DHT22;27984;51.476;5.702;2023-04-22T04:18:26;8.70;99.90
42333;DHT22;27984;51.476;5.702;2023-04-22T04:20:53;8.70;99.90
42333;DHT22;27984;51.476;5.702;2023-04-22T04:23:19;8.70;99.90
42333;DHT22;27984;51.476;5.702;2023-04-22T04:25:45;8.70;99.90
42333;DHT22;27984;51.476;5.702;2023-04-22T04:28:10;8.70;99.90
42333;DHT22;27984;51.476;5.702;2023-04-22T04:30:37;8.70;99.90
42333;DHT22;27984;51.476;5.702;2023-04-22T04:33:03;8.70;99.90
42333;DHT22;27984;51.476;5.702;2023-04-22T04:35:32;8.70;99.90
42333;DHT22;27984;51.476;5.702;2023-04-22T04:38:04;8.70;99.90
42333;DHT22;27984;51.476;5.702;2023-04-22T04:40:30;8.70;99.90
42333;DHT22;27984;51.476;5.702;2023-04-22T04:42:56;8.70;99.90
42333;DHT22;27984;51.476;5.702;2023-04-22T04:45:22;8.80;99.90
42333;DHT22;27984;51.476;5.702;2023-04-22T04:47:48;8.80;99.90
42333;DHT22;27984;51.476;5.702;2023-04-22T04:50:15;8.80;99.90
42333;DHT22;27984;51.476;5.702;2023-04-22T04:52:41;8.80;99.90
42333;DHT22;27984;51.476;5.702;2023-04-22T04:55:07;8.80;99.90
42333;DHT22;27984;51.476;5.702;2023-04-22T04:57:33;8.80;99.90
42333;DHT22;27984;51.476;5.702;2023-04-22T04:59:58;8.90;99.90
42333;DHT22;27984;51.476;5.702;2023-04-22T05:02:24;8.90;99.90
42333;DHT22;27984;51.476;5.702;2023-04-22T05:04:49;8.90;99.90
42333;DHT22;27984;51.476;5.702;2023-04-22T05:07:15;9.00;99.90
42333;DHT22;27984;51.476;5.702;2023-04-22T05:09:40;9.10;99.90
42333;DHT22;27984;51.476;5.702;2023-04-22T05:12:06;9.10;99.90
42333;DHT22;27984;51.476;5.702;2023-04-22T05:14:31;9.00;99.90
42333;DHT22;27984;51.476;5.702;2023-04-22T05:16:57;9.10;99.90
42333;DHT22;27984;51.476;5.702;2023-04-22T05:19:23;9.10;99.90
42333;DHT22;27984;51.476;5.702;2023-04-22T05:21:48;9.10;99.90
42333;DHT22;27984;51.476;5.702;2023-04-22T05:24:14;9.10;99.90
42333;DHT22;27984;51.476;5.702;2023-04-22T05:26:39;9.10;99.90
42333;DHT22;27984;51.476;5.702;2023-04-22T05:29:05;9.10;99.90
42333;DHT22;27984;51.476;5.702;2023-04-22T05:31:32;9.00;99.90
42333;DHT22;27984;51.476;5.702;2023-04-22T05:33:58;9.10;99.90
42333;DHT22;27984;51.476;5.702;2023-04-22T05:36:23;9.10;99.90
42333;DHT22;27984;51.476;5.702;2023-04-22T05:38:49;9.20;99.90
42333;DHT22;27984;51.476;5.702;2023-04-22T05:41:14;9.20;99.90
42333;DHT22;27984;51.476;5.702;2023-04-22T05:43:40;9.30;99.90
42333;DHT22;27984;51.476;5.702;2023-04-22T05:46:06;9.40;99.90
42333;DHT22;27984;51.476;5.702;2023-04-22T05:48:32;9.50;99.90
42333;DHT22;27984;51.476;5.702;2023-04-22T05:50:57;9.60;99.90
42333;DHT22;27984;51.476;5.702;2023-04-22T05:53:22;9.70;99.90
42333;DHT22;27984;51.476;5.702;2023-04-22T05:55:48;9.80;99.90
42333;DHT22;27984;51.476;5.702;2023-04-22T05:58:14;10.00;99.90
42333;DHT22;27984;51.476;5.702;2023-04-22T06:00:40;10.30;99.90
42333;DHT22;27984;51.476;5.702;2023-04-22T06:03:05;10.80;99.90
42333;DHT22;27984;51.476;5.702;2023-04-22T06:05:31;11.40;99.90
42333;DHT22;27984;51.476;5.702;2023-04-22T06:07:57;11.90;99.90
42333;DHT22;27984;51.476;5.702;2023-04-22T06:10:22;12.40;99.90
42333;DHT22;27984;51.476;5.702;2023-04-22T06:12:48;12.40;99.90
42333;DHT22;27984;51.476;5.702;2023-04-22T06:15:13;12.30;99.90
42333;DHT22;27984;51.476;5.702;2023-04-22T06:17:39;12.30;99.90
42333;DHT22;27984;51.476;5.702;2023-04-22T06:20:05;12.70;99.90
42333;DHT22;27984;51.476;5.702;2023-04-22T06:22:31;13.30;99.90
42333;DHT22;27984;51.476;5.702;2023-04-22T06:24:56;14.10;99.90
42333;DHT22;27984;51.476;5.702;2023-04-22T06:27:22;14.70;99.90
42333;DHT22;27984;51.476;5.702;2023-04-22T06:29:47;14.90;99.90
42333;DHT22;27984;51.476;5.702;2023-04-22T06:32:13;15.10;99.90
42333;DHT22;27984;51.476;5.702;2023-04-22T06:34:38;15.60;99.90
42333;DHT22;27984;51.476;5.702;2023-04-22T06:37:04;16.10;99.90
42333;DHT22;27984;51.476;5.702;2023-04-22T06:39:30;16.60;99.90
42333;DHT22;27984;51.476;5.702;2023-04-22T06:41:56;16.80;99.90
42333;DHT22;27984;51.476;5.702;2023-04-22T06:44:21;16.90;99.90
42333;DHT22;27984;51.476;5.702;2023-04-22T06:46:47;17.10;99.90
42333;DHT22;27984;51.476;5.702;2023-04-22T06:49:12;17.30;99.90
42333;DHT22;27984;51.476;5.702;2023-04-22T06:51:38;17.50;99.90
42333;DHT22;27984;51.476;5.702;2023-04-22T06:54:03;17.90;99.90
42333;DHT22;27984;51.476;5.702;2023-04-22T06:56:29;18.40;99.90
42333;DHT22;27984;51.476;5.702;2023-04-22T06:58:55;18.50;99.90
42333;DHT22;27984;51.476;5.702;2023-04-22T07:01:20;18.70;99.90
42333;DHT22;27984;51.476;5.702;2023-04-22T07:03:46;18.90;99.90
42333;DHT22;27984;51.476;5.702;2023-04-22T07:06:12;19.30;99.90
42333;DHT22;27984;51.476;5.702;2023-04-22T07:08:37;19.40;99.90
42333;DHT22;27984;51.476;5.702;2023-04-22T07:11:03;19.60;99.90
42333;DHT22;27984;51.476;5.702;2023-04-22T07:13:28;19.30;99.90
42333;DHT22;27984;51.476;5.702;2023-04-22T07:16:01;19.10;99.90
42333;DHT22;27984;51.476;5.702;2023-04-22T07:18:27;19.40;99.90
42333;DHT22;27984;51.476;5.702;2023-04-22T07:20:53;19.60;99.90
42333;DHT22;27984;51.476;5.702;2023-04-22T07:23:18;19.80;99.90
42333;DHT22;27984;51.476;5.702;2023-04-22T07:25:44;20.00;99.90
42333;DHT22;27984;51.476;5.702;2023-04-22T07:28:09;20.40;99.90
42333;DHT22;27984;51.476;5.702;2023-04-22T07:30:35;21.20;99.90
42333;DHT22;27984;51.476;5.702;2023-04-22T07:33:01;21.20;99.90
42333;DHT22;27984;51.476;5.702;2023-04-22T07:35:26;21.10;99.90
42333;DHT22;27984;51.476;5.702;2023-04-22T07:37:53;20.10;99.90
42333;DHT22;27984;51.476;5.702;2023-04-22T07:40:19;19.10;99.90
42333;DHT22;27984;51.476;5.702;2023-04-22T07:42:45;18.70;99.90
42333;DHT22;27984;51.476;5.702;2023-04-22T07:45:10;18.90;99.90
42333;DHT22;27984;51.476;5.702;2023-04-22T07:47:36;19.00;99.90
42333;DHT22;27984;51.476;5.702;2023-04-22T07:50:02;19.00;99.90
42333;DHT22;27984;51.476;5.702;2023-04-22T07:52:27;19.60;99.90
42333;DHT22;27984;51.476;5.702;2023-04-22T07:54:54;20.00;99.90
42333;DHT22;27984;51.476;5.702;2023-04-22T07:57:20;19.80;99.90
42333;DHT22;27984;51.476;5.702;2023-04-22T07:59:47;19.50;99.90
42333;DHT22;27984;51.476;5.702;2023-04-22T08:02:13;19.30;99.90
42333;DHT22;27984;51.476;5.702;2023-04-22T08:04:38;18.80;99.90
42333;DHT22;27984;51.476;5.702;2023-04-22T08:07:04;18.80;99.90
42333;DHT22;27984;51.476;5.702;2023-04-22T08:09:30;19.10;99.90
42333;DHT22;27984;51.476;5.702;2023-04-22T08:11:55;19.70;99.90
42333;DHT22;27984;51.476;5.702;2023-04-22T08:14:22;20.30;99.90
42333;DHT22;27984;51.476;5.702;2023-04-22T08:16:50;21.00;99.90
42333;DHT22;27984;51.476;5.702;2023-04-22T08:19:15;21.40;99.90
42333;DHT22;27984;51.476;5.702;2023-04-22T08:21:41;22.20;99.90
42333;DHT22;27984;51.476;5.702;2023-04-22T08:24:07;22.10;99.90
42333;DHT22;27984;51.476;5.702;2023-04-22T08:26:32;21.70;98.80
42333;DHT22;27984;51.476;5.702;2023-04-22T08:28:59;21.60;99.00
42333;DHT22;27984;51.476;5.702;2023-04-22T08:31:25;21.80;98.60
42333;DHT22;27984;51.476;5.702;2023-04-22T08:33:50;22.00;98.30
42333;DHT22;27984;51.476;5.702;2023-04-22T08:36:16;22.40;99.30
42333;DHT22;27984;51.476;5.702;2023-04-22T08:38:41;22.40;97.10
42333;DHT22;27984;51.476;5.702;2023-04-22T08:41:07;22.80;96.70
42333;DHT22;27984;51.476;5.702;2023-04-22T08:43:34;22.60;97.00
42333;DHT22;27984;51.476;5.702;2023-04-22T08:46:00;22.60;98.70
42333;DHT22;27984;51.476;5.702;2023-04-22T08:48:26;22.10;98.20
42333;DHT22;27984;51.476;5.702;2023-04-22T08:50:52;22.70;99.30
42333;DHT22;27984;51.476;5.702;2023-04-22T08:53:19;23.60;97.60
42333;DHT22;27984;51.476;5.702;2023-04-22T08:55:47;23.60;95.10
42333;DHT22;27984;51.476;5.702;2023-04-22T08:58:13;24.10;95.80
42333;DHT22;27984;51.476;5.702;2023-04-22T09:00:42;24.20;96.80
42333;DHT22;27984;51.476;5.702;2023-04-22T09:03:08;24.70;94.30
42333;DHT22;27984;51.476;5.702;2023-04-22T09:05:36;24.80;95.40
42333;DHT22;27984;51.476;5.702;2023-04-22T09:08:02;24.80;96.00
42333;DHT22;27984;51.476;5.702;2023-04-22T09:10:29;24.90;95.90
42333;DHT22;27984;51.476;5.702;2023-04-22T09:12:56;25.00;96.20
42333;DHT22;27984;51.476;5.702;2023-04-22T09:15:23;25.60;93.50
42333;DHT22;27984;51.476;5.702;2023-04-22T09:17:52;25.20;92.80
42333;DHT22;27984;51.476;5.702;2023-04-22T09:20:18;24.40;94.70
42333;DHT22;27984;51.476;5.702;2023-04-22T09:22:51;24.20;94.20
42333;DHT22;27984;51.476;5.702;2023-04-22T09:25:22;23.30;95.40
42333;DHT22;27984;51.476;5.702;2023-04-22T09:27:51;22.90;96.00
42333;DHT22;27984;51.476;5.702;2023-04-22T09:30:23;22.50;97.00
42333;DHT22;27984;51.476;5.702;2023-04-22T09:32:59;23.30;98.00
42333;DHT22;27984;51.476;5.702;2023-04-22T09:35:39;23.30;96.20
42333;DHT22;27984;51.476;5.702;2023-04-22T09:38:06;23.90;96.30
42333;DHT22;27984;51.476;5.702;2023-04-22T09:40:33;24.30;94.80
42333;DHT22;27984;51.476;5.702;2023-04-22T09:43:01;25.10;94.40
42333;DHT22;27984;51.476;5.702;2023-04-22T09:48:13;25.50;90.90
42333;DHT22;27984;51.476;5.702;2023-04-22T09:50:43;25.00;92.90
42333;DHT22;27984;51.476;5.702;2023-04-22T09:53:11;25.10;92.00
42333;DHT22;27984;51.476;5.702;2023-04-22T09:55:43;25.40;92.30
42333;DHT22;27984;51.476;5.702;2023-04-22T09:58:10;25.20;91.70
42333;DHT22;27984;51.476;5.702;2023-04-22T10:00:48;25.00;91.80
42333;DHT22;27984;51.476;5.702;2023-04-22T10:03:18;24.60;91.20
42333;DHT22;27984;51.476;5.702;2023-04-22T10:05:44;24.30;93.70
42333;DHT22;27984;51.476;5.702;2023-04-22T10:08:14;24.90;92.90
42333;DHT22;27984;51.476;5.702;2023-04-22T10:10:43;25.30;92.10
42333;DHT22;27984;51.476;5.702;2023-04-22T10:13:09;26.00;91.70
42333;DHT22;27984;51.476;5.702;2023-04-22T10:15:46;26.00;90.90
42333;DHT22;27984;51.476;5.702;2023-04-22T10:18:15;25.70;90.70
42333;DHT22;27984;51.476;5.702;2023-04-22T10:20:43;26.00;92.00
42333;DHT22;27984;51.476;5.702;2023-04-22T10:23:21;26.40;91.30
42333;DHT22;27984;51.476;5.702;2023-04-22T10:25:48;26.60;90.00
42333;DHT22;27984;51.476;5.702;2023-04-22T10:28:15;26.00;91.90
42333;DHT22;27984;51.476;5.702;2023-04-22T10:30:41;25.80;93.20
42333;DHT22;27984;51.476;5.702;2023-04-22T10:39:14;24.10;93.30
42333;DHT22;27984;51.476;5.702;2023-04-22T10:41:32;23.20;93.80
42333;DHT22;27984;51.476;5.702;2023-04-22T10:44:08;22.40;96.40
42333;DHT22;27984;51.476;5.702;2023-04-22T10:49:20;21.90;97.30
42333;DHT22;27984;51.476;5.702;2023-04-22T10:51:52;22.70;98.40
42333;DHT22;27984;51.476;5.702;2023-04-22T10:57:04;24.30;95.00
42333;DHT22;27984;51.476;5.702;2023-04-22T10:59:30;24.70;94.70
42333;DHT22;27984;51.476;5.702;2023-04-22T11:02:01;24.40;94.10
42333;DHT22;27984;51.476;5.702;2023-04-22T11:04:26;23.70;95.40
42333;DHT22;27984;51.476;5.702;2023-04-22T11:09:47;22.30;96.90
42333;DHT22;27984;51.476;5.702;2023-04-22T11:15:11;21.20;98.40
42333;DHT22;27984;51.476;5.702;2023-04-22T11:17:39;20.50;99.50
42333;DHT22;27984;51.476;5.702;2023-04-22T11:20:07;20.10;99.90
42333;DHT22;27984;51.476;5.702;2023-04-22T11:22:37;19.90;99.90
42333;DHT22;27984;51.476;5.702;2023-04-22T11:25:04;19.70;99.90
42333;DHT22;27984;51.476;5.702;2023-04-22T11:27:30;19.50;99.90
42333;DHT22;27984;51.476;5.702;2023-04-22T11:30:13;19.40;99.90
42333;DHT22;27984;51.476;5.702;2023-04-22T11:32:42;19.50;99.90
42333;DHT22;27984;51.476;5.702;2023-04-22T11:35:09;19.70;99.90
42333;DHT22;27984;51.476;5.702;2023-04-22T11:37:45;19.90;99.90
42333;DHT22;27984;51.476;5.702;2023-04-22T11:40:11;19.90;99.90
42333;DHT22;27984;51.476;5.702;2023-04-22T11:42:38;19.70;99.90
42333;DHT22;27984;51.476;5.702;2023-04-22T11:45:05;19.60;99.90
42333;DHT22;27984;51.476;5.702;2023-04-22T11:47:31;19.70;99.90
42333;DHT22;27984;51.476;5.702;2023-04-22T11:50:08;19.60;99.90
42333;DHT22;27984;51.476;5.702;2023-04-22T11:52:43;19.50;99.90
42333;DHT22;27984;51.476;5.702;2023-04-22T11:55:13;19.50;99.90
42333;DHT22;27984;51.476;5.702;2023-04-22T11:57:40;19.40;99.90
42333;DHT22;27984;51.476;5.702;2023-04-22T12:00:09;19.40;99.90
42333;DHT22;27984;51.476;5.702;2023-04-22T12:02:35;19.60;99.90
42333;DHT22;27984;51.476;5.702;2023-04-22T12:05:01;19.60;99.90
42333;DHT22;27984;51.476;5.702;2023-04-22T12:07:28;19.60;99.90
42333;DHT22;27984;51.476;5.702;2023-04-22T12:09:54;19.70;99.90
42333;DHT22;27984;51.476;5.702;2023-04-22T12:12:26;19.70;99.90
42333;DHT22;27984;51.476;5.702;2023-04-22T12:14:51;19.90;99.90
42333;DHT22;27984;51.476;5.702;2023-04-22T12:17:22;19.70;99.90
42333;DHT22;27984;51.476;5.702;2023-04-22T12:19:55;19.60;99.90
42333;DHT22;27984;51.476;5.702;2023-04-22T12:22:28;19.50;99.90
42333;DHT22;27984;51.476;5.702;2023-04-22T12:24:57;19.10;99.90
42333;DHT22;27984;51.476;5.702;2023-04-22T12:27:23;18.90;99.90
42333;DHT22;27984;51.476;5.702;2023-04-22T12:29:53;18.60;99.90
42333;DHT22;27984;51.476;5.702;2023-04-22T12:32:20;18.40;99.90
42333;DHT22;27984;51.476;5.702;2023-04-22T12:34:46;18.20;99.90
42333;DHT22;27984;51.476;5.702;2023-04-22T12:37:12;18.10;99.90
42333;DHT22;27984;51.476;5.702;2023-04-22T12:39:38;18.10;99.90
42333;DHT22;27984;51.476;5.702;2023-04-22T12:42:05;18.20;99.90
42333;DHT22;27984;51.476;5.702;2023-04-22T12:44:31;18.40;99.90
42333;DHT22;27984;51.476;5.702;2023-04-22T12:46:57;18.50;99.90
42333;DHT22;27984;51.476;5.702;2023-04-22T12:49:22;18.50;99.90
42333;DHT22;27984;51.476;5.702;2023-04-22T12:51:48;18.50;99.90
42333;DHT22;27984;51.476;5.702;2023-04-22T12:54:13;18.20;99.90
42333;DHT22;27984;51.476;5.702;2023-04-22T12:56:39;17.90;99.90
42333;DHT22;27984;51.476;5.702;2023-04-22T12:59:05;17.70;99.90
42333;DHT22;27984;51.476;5.702;2023-04-22T13:01:30;17.40;99.90
42333;DHT22;27984;51.476;5.702;2023-04-22T13:03:56;17.30;99.90
42333;DHT22;27984;51.476;5.702;2023-04-22T13:06:22;17.20;99.90
42333;DHT22;27984;51.476;5.702;2023-04-22T13:08:47;17.00;99.90
42333;DHT22;27984;51.476;5.702;2023-04-22T13:11:13;16.70;99.90
42333;DHT22;27984;51.476;5.702;2023-04-22T13:13:38;16.40;99.90
42333;DHT22;27984;51.476;5.702;2023-04-22T13:16:04;16.30;99.90
42333;DHT22;27984;51.476;5.702;2023-04-22T13:18:30;16.10;99.90
42333;DHT22;27984;51.476;5.702;2023-04-22T13:20:56;16.10;99.90
42333;DHT22;27984;51.476;5.702;2023-04-22T13:23:22;16.00;99.90
42333;DHT22;27984;51.476;5.702;2023-04-22T13:25:51;16.00;99.90
42333;DHT22;27984;51.476;5.702;2023-04-22T13:28:16;16.20;99.90
42333;DHT22;27984;51.476;5.702;2023-04-22T13:30:42;16.30;99.90
42333;DHT22;27984;51.476;5.702;2023-04-22T13:33:07;16.30;99.90
42333;DHT22;27984;51.476;5.702;2023-04-22T13:35:33;16.30;99.90
42333;DHT22;27984;51.476;5.702;2023-04-22T13:37:58;16.30;99.90
42333;DHT22;27984;51.476;5.702;2023-04-22T13:40:24;16.50;99.90
42333;DHT22;27984;51.476;5.702;2023-04-22T13:42:51;16.60;99.90
42333;DHT22;27984;51.476;5.702;2023-04-22T13:45:17;17.10;99.90
42333;DHT22;27984;51.476;5.702;2023-04-22T13:47:42;17.30;99.90
42333;DHT22;27984;51.476;5.702;2023-04-22T13:50:08;17.50;99.90
42333;DHT22;27984;51.476;5.702;2023-04-22T13:52:35;17.50;99.90
42333;DHT22;27984;51.476;5.702;2023-04-22T13:55:02;17.30;99.90
42333;DHT22;27984;51.476;5.702;2023-04-22T13:57:27;17.30;99.90
42333;DHT22;27984;51.476;5.702;2023-04-22T13:59:53;17.20;99.90
42333;DHT22;27984;51.476;5.702;2023-04-22T14:02:18;17.30;99.90
42333;DHT22;27984;51.476;5.702;2023-04-22T14:04:44;17.30;99.90
42333;DHT22;27984;51.476;5.702;2023-04-22T14:07:09;17.20;99.90
42333;DHT22;27984;51.476;5.702;2023-04-22T14:09:35;17.00;99.90
42333;DHT22;27984;51.476;5.702;2023-04-22T14:12:01;17.20;99.90
42333;DHT22;27984;51.476;5.702;2023-04-22T14:14:27;17.20;99.90
42333;DHT22;27984;51.476;5.702;2023-04-22T14:16:53;17.00;99.90
42333;DHT22;27984;51.476;5.702;2023-04-22T14:19:19;17.00;99.90
42333;DHT22;27984;51.476;5.702;2023-04-22T14:21:45;17.00;99.90
42333;DHT22;27984;51.476;5.702;2023-04-22T14:24:11;16.80;99.90
42333;DHT22;27984;51.476;5.702;2023-04-22T14:26:37;16.60;99.90
42333;DHT22;27984;51.476;5.702;2023-04-22T14:29:02;16.50;99.90
42333;DHT22;27984;51.476;5.702;2023-04-22T14:31:28;16.40;99.90
42333;DHT22;27984;51.476;5.702;2023-04-22T14:33:53;16.20;99.90
42333;DHT22;27984;51.476;5.702;2023-04-22T14:36:19;16.10;99.90
42333;DHT22;27984;51.476;5.702;2023-04-22T14:38:44;16.10;99.90
42333;DHT22;27984;51.476;5.702;2023-04-22T14:41:10;16.00;99.90
42333;DHT22;27984;51.476;5.702;2023-04-22T14:43:36;15.80;99.90
42333;DHT22;27984;51.476;5.702;2023-04-22T14:46:01;15.60;99.90
42333;DHT22;27984;51.476;5.702;2023-04-22T14:48:27;15.50;99.90
42333;DHT22;27984;51.476;5.702;2023-04-22T14:50:55;15.30;99.90
42333;DHT22;27984;51.476;5.702;2023-04-22T14:53:21;15.20;99.90
42333;DHT22;27984;51.476;5.702;2023-04-22T14:55:47;15.00;99.90
42333;DHT22;27984;51.476;5.702;2023-04-22T14:58:12;15.00;99.90
42333;DHT22;27984;51.476;5.702;2023-04-22T15:00:38;15.00;99.90
42333;DHT22;27984;51.476;5.702;2023-04-22T15:03:03;14.90;99.90
42333;DHT22;27984;51.476;5.702;2023-04-22T15:05:29;15.00;99.90
42333;DHT22;27984;51.476;5.702;2023-04-22T15:07:55;14.90;99.90
42333;DHT22;27984;51.476;5.702;2023-04-22T15:10:22;14.90;99.90
42333;DHT22;27984;51.476;5.702;2023-04-22T15:12:48;14.90;99.90
42333;DHT22;27984;51.476;5.702;2023-04-22T15:15:14;15.00;99.90
42333;DHT22;27984;51.476;5.702;2023-04-22T15:17:41;14.90;99.90
42333;DHT22;27984;51.476;5.702;2023-04-22T15:20:08;14.90;99.90
42333;DHT22;27984;51.476;5.702;2023-04-22T15:22:33;15.00;99.90
42333;DHT22;27984;51.476;5.702;2023-04-22T15:24:59;14.90;99.90
42333;DHT22;27984;51.476;5.702;2023-04-22T15:27:25;15.00;99.90
42333;DHT22;27984;51.476;5.702;2023-04-22T15:29:51;15.10;99.90
42333;DHT22;27984;51.476;5.702;2023-04-22T15:32:17;15.20;99.90
42333;DHT22;27984;51.476;5.702;2023-04-22T15:34:42;15.20;99.90
42333;DHT22;27984;51.476;5.702;2023-04-22T15:37:08;15.40;99.90
42333;DHT22;27984;51.476;5.702;2023-04-22T15:39:33;15.50;99.90
42333;DHT22;27984;51.476;5.702;2023-04-22T15:41:59;15.60;99.90
42333;DHT22;27984;51.476;5.702;2023-04-22T15:44:25;15.60;99.90
42333;DHT22;27984;51.476;5.702;2023-04-22T15:46:51;15.60;99.90
42333;DHT22;27984;51.476;5.702;2023-04-22T15:49:17;15.50;99.90
42333;DHT22;27984;51.476;5.702;2023-04-22T15:51:43;15.40;99.90